sensor_id;sensor_type;location;lat;lon;timestamp;pressure;altitude;pressure_sealevel;temperature;humidity
48680;BME280;34475;51.658;5.634;2022-10-22T00:00:00;100680;;;13.4;100.0
48680;BME280;34475;51.658;5.634;2022-10-22T00:01:00;100680;;;13.4;100.0
48680;BME280;34475;51.658;5.634;2022-10-22T00:02:00;100680;;;13.4;100.0
48680;BME280;34475;51.658;5.634;2022-10-22T00:03:00;100680;;;13.4;100.0
48680;BME280;34475;51.658;5.634;2022-10-22T00:04:00;100690;;;13.4;100.0
48680;BME280;34475;51.658;5.634;2022-10-22T00:05:00;100690;;;13.4;100.0
48680;BME280;34475;51.658;5.634;2022-10-22T00:06:00;100680;;;13.4;100.0
48680;BME280;34475;51.658;5.634;2022-10-22T00:07:00;100680;;;13.4;100.0
48680;BME280;34475;51.658;5.634;2022-10-22T00:08:00;100690;;;13.5;100.0
48680;BME280;34475;51.658;5.634;2022-10-22T00:09:00;100690;;;13.5;100.0
48680;BME280;34475;51.658;5.634;2022-10-22T00:10:00;100690;;;13.6;100.0
48680;BME280;34475;51.658;5.634;2022-10-22T00:11:06;100690;;;13.6;100.0
48680;BME280;34475;51.658;5.634;2022-10-22T00:12:00;100690;;;13.6;100.0
48680;BME280;34475;51.658;5.634;2022-10-22T00:13:00;100690;;;13.6;100.0
48680;BME280;34475;51.658;5.634;2022-10-22T00:14:00;100690;;;13.6;100.0
48680;BME280;34475;51.658;5.634;2022-10-22T00:15:00;100690;;;13.6;100.0
48680;BME280;34475;51.658;5.634;2022-10-22T00:16:00;100690;;;13.6;100.0
48680;BME280;34475;51.658;5.634;2022-10-22T00:17:00;100690;;;13.6;100.0
48680;BME280;34475;51.658;5.634;2022-10-22T00:18:00;100690;;;13.6;100.0
48680;BME280;34475;51.658;5.634;2022-10-22T00:19:00;100690;;;13.6;100.0
48680;BME280;34475;51.658;5.634;2022-10-22T00:20:00;100690;;;13.6;100.0
48680;BME280;34475;51.658;5.634;2022-10-22T00:21:00;100690;;;13.6;100.0
48680;BME280;34475;51.658;5.634;2022-10-22T00:22:00;100690;;;13.6;100.0
48680;BME280;34475;51.658;5.634;2022-10-22T00:23:00;100690;;;13.6;100.0
48680;BME280;34475;51.658;5.634;2022-10-22T00:24:00;100690;;;13.6;100.0
48680;BME280;34475;51.658;5.634;2022-10-22T00:25:00;100690;;;13.6;100.0
48680;BME280;34475;51.658;5.634;2022-10-22T00:26:00;100690;;;13.7;100.0
48680;BME280;34475;51.658;5.634;2022-10-22T00:27:00;100690;;;13.7;100.0
48680;BME280;34475;51.658;5.634;2022-10-22T00:28:00;100690;;;13.7;100.0
48680;BME280;34475;51.658;5.634;2022-10-22T00:29:00;100690;;;13.7;100.0
48680;BME280;34475;51.658;5.634;2022-10-22T00:30:00;100690;;;13.6;100.0
48680;BME280;34475;51.658;5.634;2022-10-22T00:31:00;100690;;;13.6;100.0
48680;BME280;34475;51.658;5.634;2022-10-22T00:32:00;100690;;;13.6;100.0
48680;BME280;34475;51.658;5.634;2022-10-22T00:33:00;100690;;;13.6;100.0
48680;BME280;34475;51.658;5.634;2022-10-22T00:34:00;100690;;;13.5;100.0
48680;BME280;34475;51.658;5.634;2022-10-22T00:35:00;100690;;;13.5;100.0
48680;BME280;34475;51.658;5.634;2022-10-22T00:36:00;100690;;;13.5;100.0
48680;BME280;34475;51.658;5.634;2022-10-22T00:37:00;100690;;;13.5;100.0
48680;BME280;34475;51.658;5.634;2022-10-22T00:38:01;100680;;;13.6;100.0
48680;BME280;34475;51.658;5.634;2022-10-22T00:39:00;100680;;;13.6;100.0
48680;BME280;34475;51.658;5.634;2022-10-22T00:40:00;100680;;;13.7;100.0
48680;BME280;34475;51.658;5.634;2022-10-22T00:41:00;100680;;;13.7;100.0
48680;BME280;34475;51.658;5.634;2022-10-22T00:42:00;100680;;;13.6;100.0
48680;BME280;34475;51.658;5.634;2022-10-22T00:43:00;100680;;;13.6;100.0
48680;BME280;34475;51.658;5.634;2022-10-22T00:44:01;100680;;;13.6;100.0
48680;BME280;34475;51.658;5.634;2022-10-22T00:46:00;100690;;;13.7;100.0
48680;BME280;34475;51.658;5.634;2022-10-22T00:47:00;100690;;;13.7;100.0
48680;BME280;34475;51.658;5.634;2022-10-22T00:48:03;100690;;;13.6;100.0
48680;BME280;34475;51.658;5.634;2022-10-22T00:49:00;100690;;;13.6;100.0
48680;BME280;34475;51.658;5.634;2022-10-22T00:50:00;100700;;;13.5;100.0
48680;BME280;34475;51.658;5.634;2022-10-22T00:51:01;100700;;;13.5;100.0
48680;BME280;34475;51.658;5.634;2022-10-22T00:52:00;100700;;;13.6;100.0
48680;BME280;34475;51.658;5.634;2022-10-22T00:53:00;100700;;;13.6;100.0
48680;BME280;34475;51.658;5.634;2022-10-22T00:54:01;100700;;;13.6;100.0
48680;BME280;34475;51.658;5.634;2022-10-22T00:55:00;100700;;;13.6;100.0
48680;BME280;34475;51.658;5.634;2022-10-22T00:56:00;100700;;;13.5;100.0
48680;BME280;34475;51.658;5.634;2022-10-22T00:57:00;100700;;;13.5;100.0
48680;BME280;34475;51.658;5.634;2022-10-22T00:58:00;100690;;;13.5;100.0
48680;BME280;34475;51.658;5.634;2022-10-22T00:59:00;100690;;;13.5;100.0
48680;BME280;34475;51.658;5.634;2022-10-22T01:00:00;100690;;;13.5;100.0
48680;BME280;34475;51.658;5.634;2022-10-22T01:01:00;100690;;;13.5;100.0
48680;BME280;34475;51.658;5.634;2022-10-22T01:02:00;100690;;;13.5;100.0
48680;BME280;34475;51.658;5.634;2022-10-22T01:03:00;100690;;;13.5;100.0
48680;BME280;34475;51.658;5.634;2022-10-22T01:04:00;100690;;;13.5;100.0
48680;BME280;34475;51.658;5.634;2022-10-22T01:05:00;100690;;;13.5;100.0
48680;BME280;34475;51.658;5.634;2022-10-22T01:06:02;100690;;;13.4;100.0
48680;BME280;34475;51.658;5.634;2022-10-22T01:07:00;100690;;;13.4;100.0
48680;BME280;34475;51.658;5.634;2022-10-22T01:08:00;100690;;;13.4;100.0
48680;BME280;34475;51.658;5.634;2022-10-22T01:09:03;100690;;;13.4;100.0
48680;BME280;34475;51.658;5.634;2022-10-22T01:10:09;100690;;;13.4;100.0
48680;BME280;34475;51.658;5.634;2022-10-22T01:11:06;100690;;;13.4;100.0
48680;BME280;34475;51.658;5.634;2022-10-22T01:13:05;100690;;;13.4;100.0
48680;BME280;34475;51.658;5.634;2022-10-22T01:17:03;100700;;;13.4;100.0
48680;BME280;34475;51.658;5.634;2022-10-22T01:18:02;100700;;;13.4;100.0
48680;BME280;34475;51.658;5.634;2022-10-22T01:22:04;100690;;;13.4;100.0
48680;BME280;34475;51.658;5.634;2022-10-22T01:23:02;100690;;;13.4;100.0
48680;BME280;34475;51.658;5.634;2022-10-22T01:24:05;100690;;;13.3;100.0
48680;BME280;34475;51.658;5.634;2022-10-22T01:31:00;100680;;;13.4;100.0
48680;BME280;34475;51.658;5.634;2022-10-22T01:32:01;100680;;;13.3;100.0
48680;BME280;34475;51.658;5.634;2022-10-22T01:33:01;100680;;;13.3;100.0
48680;BME280;34475;51.658;5.634;2022-10-22T01:34:00;100690;;;13.2;100.0
48680;BME280;34475;51.658;5.634;2022-10-22T01:35:01;100690;;;13.2;100.0
48680;BME280;34475;51.658;5.634;2022-10-22T01:36:00;100690;;;13.2;100.0
48680;BME280;34475;51.658;5.634;2022-10-22T01:37:00;100690;;;13.2;100.0
48680;BME280;34475;51.658;5.634;2022-10-22T01:38:00;100690;;;13.1;100.0
48680;BME280;34475;51.658;5.634;2022-10-22T01:39:00;100690;;;13.1;100.0
48680;BME280;34475;51.658;5.634;2022-10-22T01:40:00;100690;;;13.2;100.0
48680;BME280;34475;51.658;5.634;2022-10-22T01:41:00;100690;;;13.2;100.0
48680;BME280;34475;51.658;5.634;2022-10-22T01:42:00;100690;;;13.2;100.0
48680;BME280;34475;51.658;5.634;2022-10-22T01:43:01;100690;;;13.2;100.0
48680;BME280;34475;51.658;5.634;2022-10-22T01:44:00;100690;;;13.2;100.0
48680;BME280;34475;51.658;5.634;2022-10-22T01:45:00;100690;;;13.2;100.0
48680;BME280;34475;51.658;5.634;2022-10-22T01:46:01;100690;;;13.2;100.0
48680;BME280;34475;51.658;5.634;2022-10-22T01:48:05;100690;;;13.2;100.0
48680;BME280;34475;51.658;5.634;2022-10-22T01:49:04;100690;;;13.2;100.0
48680;BME280;34475;51.658;5.634;2022-10-22T01:50:11;100680;;;13.2;100.0
48680;BME280;34475;51.658;5.634;2022-10-22T01:54:02;100680;;;13.2;100.0
48680;BME280;34475;51.658;5.634;2022-10-22T01:56:18;100680;;;13.2;100.0
48680;BME280;34475;51.658;5.634;2022-10-22T01:58:05;100680;;;13.2;100.0
48680;BME280;34475;51.658;5.634;2022-10-22T01:59:11;100680;;;13.2;100.0
48680;BME280;34475;51.658;5.634;2022-10-22T02:02:20;100680;;;13.1;100.0
48680;BME280;34475;51.658;5.634;2022-10-22T02:03:02;100680;;;13.1;100.0
48680;BME280;34475;51.658;5.634;2022-10-22T02:04:11;100680;;;13.1;100.0
48680;BME280;34475;51.658;5.634;2022-10-22T02:05:04;100680;;;13.1;100.0
48680;BME280;34475;51.658;5.634;2022-10-22T02:06:00;100680;;;13.1;100.0
48680;BME280;34475;51.658;5.634;2022-10-22T02:07:00;100680;;;13.1;100.0
48680;BME280;34475;51.658;5.634;2022-10-22T02:08:01;100680;;;13.2;100.0
48680;BME280;34475;51.658;5.634;2022-10-22T02:09:00;100680;;;13.2;100.0
48680;BME280;34475;51.658;5.634;2022-10-22T02:10:00;100680;;;13.1;100.0
48680;BME280;34475;51.658;5.634;2022-10-22T02:11:00;100680;;;13.1;100.0
48680;BME280;34475;51.658;5.634;2022-10-22T02:12:00;100680;;;13.1;100.0
48680;BME280;34475;51.658;5.634;2022-10-22T02:13:00;100680;;;13.1;100.0
48680;BME280;34475;51.658;5.634;2022-10-22T02:14:00;100680;;;13.2;100.0
48680;BME280;34475;51.658;5.634;2022-10-22T02:15:00;100680;;;13.2;100.0
48680;BME280;34475;51.658;5.634;2022-10-22T02:16:00;100680;;;13.1;100.0
48680;BME280;34475;51.658;5.634;2022-10-22T02:17:00;100680;;;13.1;100.0
48680;BME280;34475;51.658;5.634;2022-10-22T02:18:00;100680;;;13.1;100.0
48680;BME280;34475;51.658;5.634;2022-10-22T02:19:00;100680;;;13.1;100.0
48680;BME280;34475;51.658;5.634;2022-10-22T02:20:00;100680;;;13.1;100.0
48680;BME280;34475;51.658;5.634;2022-10-22T02:21:00;100680;;;13.1;100.0
48680;BME280;34475;51.658;5.634;2022-10-22T02:22:00;100680;;;13.1;100.0
48680;BME280;34475;51.658;5.634;2022-10-22T02:23:00;100680;;;13.1;100.0
48680;BME280;34475;51.658;5.634;2022-10-22T02:24:00;100680;;;13.1;100.0
48680;BME280;34475;51.658;5.634;2022-10-22T02:25:00;100680;;;13.1;100.0
48680;BME280;34475;51.658;5.634;2022-10-22T02:26:01;100680;;;13.1;100.0
48680;BME280;34475;51.658;5.634;2022-10-22T02:27:06;100680;;;13.1;100.0
48680;BME280;34475;51.658;5.634;2022-10-22T02:28:02;100680;;;13.0;100.0
48680;BME280;34475;51.658;5.634;2022-10-22T02:31:01;100680;;;13.2;100.0
48680;BME280;34475;51.658;5.634;2022-10-22T02:32:00;100680;;;13.1;100.0
48680;BME280;34475;51.658;5.634;2022-10-22T02:33:01;100680;;;13.1;100.0
48680;BME280;34475;51.658;5.634;2022-10-22T02:34:01;100680;;;13.1;100.0
48680;BME280;34475;51.658;5.634;2022-10-22T02:35:00;100680;;;13.1;100.0
48680;BME280;34475;51.658;5.634;2022-10-22T02:36:00;100680;;;13.0;100.0
48680;BME280;34475;51.658;5.634;2022-10-22T02:37:00;100680;;;13.0;100.0
48680;BME280;34475;51.658;5.634;2022-10-22T02:38:00;100680;;;13.0;100.0
48680;BME280;34475;51.658;5.634;2022-10-22T02:39:00;100680;;;13.0;100.0
48680;BME280;34475;51.658;5.634;2022-10-22T02:40:00;100680;;;13.1;100.0
48680;BME280;34475;51.658;5.634;2022-10-22T02:41:00;100680;;;13.1;100.0
48680;BME280;34475;51.658;5.634;2022-10-22T02:42:00;100670;;;13.0;100.0
48680;BME280;34475;51.658;5.634;2022-10-22T02:43:00;100670;;;13.0;100.0
48680;BME280;34475;51.658;5.634;2022-10-22T02:44:00;100680;;;13.0;100.0
48680;BME280;34475;51.658;5.634;2022-10-22T02:45:00;100680;;;13.0;100.0
48680;BME280;34475;51.658;5.634;2022-10-22T02:46:00;100680;;;13.0;100.0
48680;BME280;34475;51.658;5.634;2022-10-22T02:47:00;100680;;;13.0;100.0
48680;BME280;34475;51.658;5.634;2022-10-22T02:48:00;100680;;;13.1;100.0
48680;BME280;34475;51.658;5.634;2022-10-22T02:49:00;100680;;;13.1;100.0
48680;BME280;34475;51.658;5.634;2022-10-22T02:50:00;100680;;;13.1;100.0
48680;BME280;34475;51.658;5.634;2022-10-22T02:51:00;100680;;;13.1;100.0
48680;BME280;34475;51.658;5.634;2022-10-22T02:52:00;100680;;;13.0;100.0
48680;BME280;34475;51.658;5.634;2022-10-22T02:53:00;100680;;;13.0;100.0
48680;BME280;34475;51.658;5.634;2022-10-22T02:54:00;100680;;;13.0;100.0
48680;BME280;34475;51.658;5.634;2022-10-22T02:55:00;100680;;;13.0;100.0
48680;BME280;34475;51.658;5.634;2022-10-22T02:56:00;100680;;;13.0;100.0
48680;BME280;34475;51.658;5.634;2022-10-22T02:57:00;100680;;;13.0;100.0
48680;BME280;34475;51.658;5.634;2022-10-22T02:58:00;100680;;;13.1;100.0
48680;BME280;34475;51.658;5.634;2022-10-22T02:59:00;100680;;;13.1;100.0
48680;BME280;34475;51.658;5.634;2022-10-22T03:00:00;100680;;;13.1;100.0
48680;BME280;34475;51.658;5.634;2022-10-22T03:01:00;100680;;;13.1;100.0
48680;BME280;34475;51.658;5.634;2022-10-22T03:02:00;100680;;;13.0;100.0
48680;BME280;34475;51.658;5.634;2022-10-22T03:03:00;100680;;;13.0;100.0
48680;BME280;34475;51.658;5.634;2022-10-22T03:04:00;100690;;;13.1;100.0
48680;BME280;34475;51.658;5.634;2022-10-22T03:05:00;100690;;;13.1;100.0
48680;BME280;34475;51.658;5.634;2022-10-22T03:06:00;100690;;;13.0;100.0
48680;BME280;34475;51.658;5.634;2022-10-22T03:07:00;100690;;;13.0;100.0
48680;BME280;34475;51.658;5.634;2022-10-22T03:08:00;100690;;;13.0;100.0
48680;BME280;34475;51.658;5.634;2022-10-22T03:09:00;100690;;;13.0;100.0
48680;BME280;34475;51.658;5.634;2022-10-22T03:10:00;100690;;;13.0;100.0
48680;BME280;34475;51.658;5.634;2022-10-22T03:11:00;100690;;;13.0;100.0
48680;BME280;34475;51.658;5.634;2022-10-22T03:12:00;100680;;;13.0;100.0
48680;BME280;34475;51.658;5.634;2022-10-22T03:13:00;100680;;;13.0;100.0
48680;BME280;34475;51.658;5.634;2022-10-22T03:14:00;100690;;;13.0;100.0
48680;BME280;34475;51.658;5.634;2022-10-22T03:15:00;100690;;;13.0;100.0
48680;BME280;34475;51.658;5.634;2022-10-22T03:16:00;100690;;;13.0;100.0
48680;BME280;34475;51.658;5.634;2022-10-22T03:17:00;100690;;;13.0;100.0
48680;BME280;34475;51.658;5.634;2022-10-22T03:18:00;100690;;;12.9;100.0
48680;BME280;34475;51.658;5.634;2022-10-22T03:19:00;100690;;;12.9;100.0
48680;BME280;34475;51.658;5.634;2022-10-22T03:20:00;100690;;;13.0;100.0
48680;BME280;34475;51.658;5.634;2022-10-22T03:21:00;100690;;;13.0;100.0
48680;BME280;34475;51.658;5.634;2022-10-22T03:22:01;100690;;;12.9;100.0
48680;BME280;34475;51.658;5.634;2022-10-22T03:23:00;100690;;;12.9;100.0
48680;BME280;34475;51.658;5.634;2022-10-22T03:24:00;100690;;;12.9;100.0
48680;BME280;34475;51.658;5.634;2022-10-22T03:25:03;100690;;;12.9;100.0
48680;BME280;34475;51.658;5.634;2022-10-22T03:26:00;100690;;;13.1;100.0
48680;BME280;34475;51.658;5.634;2022-10-22T03:27:00;100690;;;13.1;100.0
48680;BME280;34475;51.658;5.634;2022-10-22T03:28:01;100690;;;13.0;100.0
48680;BME280;34475;51.658;5.634;2022-10-22T03:29:00;100690;;;13.0;100.0
48680;BME280;34475;51.658;5.634;2022-10-22T03:30:00;100700;;;12.9;100.0
48680;BME280;34475;51.658;5.634;2022-10-22T03:31:00;100700;;;12.9;100.0
48680;BME280;34475;51.658;5.634;2022-10-22T03:32:00;100700;;;13.0;100.0
48680;BME280;34475;51.658;5.634;2022-10-22T03:33:00;100700;;;13.0;100.0
48680;BME280;34475;51.658;5.634;2022-10-22T03:34:00;100700;;;12.9;100.0
48680;BME280;34475;51.658;5.634;2022-10-22T03:35:00;100700;;;12.9;100.0
48680;BME280;34475;51.658;5.634;2022-10-22T03:36:00;100700;;;13.0;100.0
48680;BME280;34475;51.658;5.634;2022-10-22T03:37:00;100700;;;13.0;100.0
48680;BME280;34475;51.658;5.634;2022-10-22T03:38:00;100700;;;13.0;100.0
48680;BME280;34475;51.658;5.634;2022-10-22T03:39:00;100700;;;13.0;100.0
48680;BME280;34475;51.658;5.634;2022-10-22T03:40:00;100700;;;13.1;100.0
48680;BME280;34475;51.658;5.634;2022-10-22T03:41:00;100700;;;13.1;100.0
48680;BME280;34475;51.658;5.634;2022-10-22T03:42:00;100700;;;13.0;100.0
48680;BME280;34475;51.658;5.634;2022-10-22T03:43:00;100700;;;13.0;100.0
48680;BME280;34475;51.658;5.634;2022-10-22T03:44:00;100710;;;12.9;100.0
48680;BME280;34475;51.658;5.634;2022-10-22T03:45:00;100710;;;12.9;100.0
48680;BME280;34475;51.658;5.634;2022-10-22T03:46:00;100710;;;13.0;100.0
48680;BME280;34475;51.658;5.634;2022-10-22T03:47:00;100710;;;13.0;100.0
48680;BME280;34475;51.658;5.634;2022-10-22T03:48:00;100710;;;12.9;100.0
48680;BME280;34475;51.658;5.634;2022-10-22T03:49:00;100710;;;12.9;100.0
48680;BME280;34475;51.658;5.634;2022-10-22T03:50:00;100720;;;13.0;100.0
48680;BME280;34475;51.658;5.634;2022-10-22T03:51:00;100720;;;13.0;100.0
48680;BME280;34475;51.658;5.634;2022-10-22T03:52:08;100720;;;13.0;100.0
48680;BME280;34475;51.658;5.634;2022-10-22T03:53:00;100720;;;13.0;100.0
48680;BME280;34475;51.658;5.634;2022-10-22T03:54:00;100720;;;12.9;100.0
48680;BME280;34475;51.658;5.634;2022-10-22T03:55:00;100720;;;12.9;100.0
48680;BME280;34475;51.658;5.634;2022-10-22T03:56:00;100720;;;12.9;100.0
48680;BME280;34475;51.658;5.634;2022-10-22T03:57:00;100720;;;12.9;100.0
48680;BME280;34475;51.658;5.634;2022-10-22T03:58:00;100720;;;12.9;100.0
48680;BME280;34475;51.658;5.634;2022-10-22T03:59:00;100720;;;12.9;100.0
48680;BME280;34475;51.658;5.634;2022-10-22T04:00:00;100730;;;13.0;100.0
48680;BME280;34475;51.658;5.634;2022-10-22T04:01:08;100730;;;13.0;100.0
48680;BME280;34475;51.658;5.634;2022-10-22T04:02:00;100730;;;12.8;100.0
48680;BME280;34475;51.658;5.634;2022-10-22T04:03:00;100730;;;12.8;100.0
48680;BME280;34475;51.658;5.634;2022-10-22T04:04:00;100730;;;12.9;100.0
48680;BME280;34475;51.658;5.634;2022-10-22T04:05:00;100730;;;12.9;100.0
48680;BME280;34475;51.658;5.634;2022-10-22T04:06:01;100740;;;12.9;100.0
48680;BME280;34475;51.658;5.634;2022-10-22T04:07:00;100740;;;12.9;100.0
48680;BME280;34475;51.658;5.634;2022-10-22T04:08:00;100740;;;12.9;100.0
48680;BME280;34475;51.658;5.634;2022-10-22T04:09:00;100740;;;12.9;100.0
48680;BME280;34475;51.658;5.634;2022-10-22T04:10:00;100740;;;12.8;100.0
48680;BME280;34475;51.658;5.634;2022-10-22T04:11:00;100740;;;12.8;100.0
48680;BME280;34475;51.658;5.634;2022-10-22T04:12:00;100740;;;12.8;100.0
48680;BME280;34475;51.658;5.634;2022-10-22T04:13:00;100740;;;12.8;100.0
48680;BME280;34475;51.658;5.634;2022-10-22T04:14:00;100740;;;12.8;100.0
48680;BME280;34475;51.658;5.634;2022-10-22T04:15:00;100740;;;12.8;100.0
48680;BME280;34475;51.658;5.634;2022-10-22T04:16:16;100740;;;12.8;100.0
48680;BME280;34475;51.658;5.634;2022-10-22T04:17:00;100740;;;12.8;100.0
48680;BME280;34475;51.658;5.634;2022-10-22T04:18:00;100730;;;12.8;100.0
48680;BME280;34475;51.658;5.634;2022-10-22T04:19:00;100730;;;12.8;100.0
48680;BME280;34475;51.658;5.634;2022-10-22T04:20:00;100740;;;12.9;100.0
48680;BME280;34475;51.658;5.634;2022-10-22T04:21:00;100740;;;12.9;100.0
48680;BME280;34475;51.658;5.634;2022-10-22T04:22:00;100740;;;12.8;100.0
48680;BME280;34475;51.658;5.634;2022-10-22T04:23:00;100740;;;12.8;100.0
48680;BME280;34475;51.658;5.634;2022-10-22T04:24:00;100740;;;12.8;100.0
48680;BME280;34475;51.658;5.634;2022-10-22T04:25:00;100740;;;12.8;100.0
48680;BME280;34475;51.658;5.634;2022-10-22T04:26:00;100740;;;12.9;100.0
48680;BME280;34475;51.658;5.634;2022-10-22T04:27:00;100740;;;12.9;100.0
48680;BME280;34475;51.658;5.634;2022-10-22T04:28:00;100740;;;12.9;100.0
48680;BME280;34475;51.658;5.634;2022-10-22T04:29:00;100740;;;12.9;100.0
48680;BME280;34475;51.658;5.634;2022-10-22T04:30:00;100740;;;12.8;100.0
48680;BME280;34475;51.658;5.634;2022-10-22T04:31:00;100740;;;12.8;100.0
48680;BME280;34475;51.658;5.634;2022-10-22T04:32:00;100740;;;12.8;100.0
48680;BME280;34475;51.658;5.634;2022-10-22T04:33:00;100740;;;12.8;100.0
48680;BME280;34475;51.658;5.634;2022-10-22T04:34:00;100740;;;12.9;100.0
48680;BME280;34475;51.658;5.634;2022-10-22T04:35:00;100740;;;12.9;100.0
48680;BME280;34475;51.658;5.634;2022-10-22T04:36:00;100740;;;12.9;100.0
48680;BME280;34475;51.658;5.634;2022-10-22T04:37:00;100740;;;12.9;100.0
48680;BME280;34475;51.658;5.634;2022-10-22T04:38:00;100740;;;12.9;100.0
48680;BME280;34475;51.658;5.634;2022-10-22T04:39:00;100740;;;12.9;100.0
48680;BME280;34475;51.658;5.634;2022-10-22T04:40:00;100740;;;12.9;100.0
48680;BME280;34475;51.658;5.634;2022-10-22T04:41:11;100740;;;12.9;100.0
48680;BME280;34475;51.658;5.634;2022-10-22T04:42:00;100740;;;12.9;100.0
48680;BME280;34475;51.658;5.634;2022-10-22T04:43:00;100740;;;12.9;100.0
48680;BME280;34475;51.658;5.634;2022-10-22T04:44:00;100740;;;12.8;100.0
48680;BME280;34475;51.658;5.634;2022-10-22T04:45:00;100740;;;12.8;100.0
48680;BME280;34475;51.658;5.634;2022-10-22T04:46:00;100740;;;12.8;100.0
48680;BME280;34475;51.658;5.634;2022-10-22T04:47:00;100740;;;12.8;100.0
48680;BME280;34475;51.658;5.634;2022-10-22T04:48:00;100740;;;12.9;100.0
48680;BME280;34475;51.658;5.634;2022-10-22T04:49:00;100740;;;12.9;100.0
48680;BME280;34475;51.658;5.634;2022-10-22T04:50:00;100740;;;12.7;100.0
48680;BME280;34475;51.658;5.634;2022-10-22T04:51:00;100740;;;12.7;100.0
48680;BME280;34475;51.658;5.634;2022-10-22T04:52:00;100740;;;12.9;100.0
48680;BME280;34475;51.658;5.634;2022-10-22T04:53:00;100740;;;12.9;100.0
48680;BME280;34475;51.658;5.634;2022-10-22T04:54:00;100740;;;12.9;100.0
48680;BME280;34475;51.658;5.634;2022-10-22T04:55:00;100740;;;12.9;100.0
48680;BME280;34475;51.658;5.634;2022-10-22T04:56:08;100750;;;13.0;100.0
48680;BME280;34475;51.658;5.634;2022-10-22T04:57:00;100750;;;13.0;100.0
48680;BME280;34475;51.658;5.634;2022-10-22T04:58:00;100750;;;12.9;100.0
48680;BME280;34475;51.658;5.634;2022-10-22T04:59:01;100750;;;12.9;100.0
48680;BME280;34475;51.658;5.634;2022-10-22T05:00:00;100750;;;12.9;100.0
48680;BME280;34475;51.658;5.634;2022-10-22T05:01:00;100750;;;12.9;100.0
48680;BME280;34475;51.658;5.634;2022-10-22T05:02:00;100760;;;13.0;100.0
48680;BME280;34475;51.658;5.634;2022-10-22T05:03:00;100760;;;13.0;100.0
48680;BME280;34475;51.658;5.634;2022-10-22T05:04:00;100760;;;12.9;100.0
48680;BME280;34475;51.658;5.634;2022-10-22T05:05:00;100760;;;12.9;100.0
48680;BME280;34475;51.658;5.634;2022-10-22T05:06:00;100760;;;12.8;100.0
48680;BME280;34475;51.658;5.634;2022-10-22T05:07:00;100760;;;12.8;100.0
48680;BME280;34475;51.658;5.634;2022-10-22T05:08:00;100760;;;12.9;100.0
48680;BME280;34475;51.658;5.634;2022-10-22T05:09:01;100760;;;12.9;100.0
48680;BME280;34475;51.658;5.634;2022-10-22T05:10:00;100760;;;12.9;100.0
48680;BME280;34475;51.658;5.634;2022-10-22T05:11:00;100760;;;12.9;100.0
48680;BME280;34475;51.658;5.634;2022-10-22T05:12:00;100760;;;13.0;100.0
48680;BME280;34475;51.658;5.634;2022-10-22T05:13:00;100760;;;13.0;100.0
48680;BME280;34475;51.658;5.634;2022-10-22T05:14:00;100760;;;12.9;100.0
48680;BME280;34475;51.658;5.634;2022-10-22T05:15:00;100760;;;12.9;100.0
48680;BME280;34475;51.658;5.634;2022-10-22T05:16:00;100760;;;12.9;100.0
48680;BME280;34475;51.658;5.634;2022-10-22T05:17:00;100760;;;12.9;100.0
48680;BME280;34475;51.658;5.634;2022-10-22T05:18:00;100760;;;12.9;100.0
48680;BME280;34475;51.658;5.634;2022-10-22T05:19:00;100760;;;12.9;100.0
48680;BME280;34475;51.658;5.634;2022-10-22T05:20:00;100760;;;12.9;100.0
48680;BME280;34475;51.658;5.634;2022-10-22T05:21:00;100760;;;12.9;100.0
48680;BME280;34475;51.658;5.634;2022-10-22T05:22:00;100760;;;12.9;100.0
48680;BME280;34475;51.658;5.634;2022-10-22T05:23:00;100760;;;12.9;100.0
48680;BME280;34475;51.658;5.634;2022-10-22T05:24:00;100760;;;12.9;100.0
48680;BME280;34475;51.658;5.634;2022-10-22T05:25:00;100760;;;12.9;100.0
48680;BME280;34475;51.658;5.634;2022-10-22T05:26:01;100770;;;13.0;100.0
48680;BME280;34475;51.658;5.634;2022-10-22T05:27:00;100770;;;13.0;100.0
48680;BME280;34475;51.658;5.634;2022-10-22T05:28:00;100760;;;12.9;100.0
48680;BME280;34475;51.658;5.634;2022-10-22T05:29:00;100760;;;12.9;100.0
48680;BME280;34475;51.658;5.634;2022-10-22T05:30:00;100770;;;12.9;100.0
48680;BME280;34475;51.658;5.634;2022-10-22T05:31:00;100770;;;12.9;100.0
48680;BME280;34475;51.658;5.634;2022-10-22T05:32:00;100760;;;12.9;100.0
48680;BME280;34475;51.658;5.634;2022-10-22T05:33:00;100760;;;12.9;100.0
48680;BME280;34475;51.658;5.634;2022-10-22T05:34:00;100770;;;12.9;100.0
48680;BME280;34475;51.658;5.634;2022-10-22T05:35:00;100770;;;12.9;100.0
48680;BME280;34475;51.658;5.634;2022-10-22T05:36:00;100770;;;13.0;100.0
48680;BME280;34475;51.658;5.634;2022-10-22T05:37:00;100770;;;13.0;100.0
48680;BME280;34475;51.658;5.634;2022-10-22T05:38:00;100770;;;12.9;100.0
48680;BME280;34475;51.658;5.634;2022-10-22T05:39:00;100770;;;12.9;100.0
48680;BME280;34475;51.658;5.634;2022-10-22T05:40:00;100770;;;13.0;100.0
48680;BME280;34475;51.658;5.634;2022-10-22T05:41:02;100770;;;13.0;100.0
48680;BME280;34475;51.658;5.634;2022-10-22T05:42:00;100760;;;12.9;100.0
48680;BME280;34475;51.658;5.634;2022-10-22T05:43:00;100760;;;12.9;100.0
48680;BME280;34475;51.658;5.634;2022-10-22T05:44:00;100770;;;13.0;100.0
48680;BME280;34475;51.658;5.634;2022-10-22T05:45:00;100770;;;13.0;100.0
48680;BME280;34475;51.658;5.634;2022-10-22T05:46:00;100770;;;13.1;100.0
48680;BME280;34475;51.658;5.634;2022-10-22T05:47:00;100770;;;13.1;100.0
48680;BME280;34475;51.658;5.634;2022-10-22T05:48:00;100770;;;13.0;100.0
48680;BME280;34475;51.658;5.634;2022-10-22T05:49:00;100770;;;13.0;100.0
48680;BME280;34475;51.658;5.634;2022-10-22T05:50:00;100780;;;13.0;100.0
48680;BME280;34475;51.658;5.634;2022-10-22T05:51:00;100780;;;13.0;100.0
48680;BME280;34475;51.658;5.634;2022-10-22T05:52:00;100780;;;13.0;100.0
48680;BME280;34475;51.658;5.634;2022-10-22T05:53:00;100780;;;13.0;100.0
48680;BME280;34475;51.658;5.634;2022-10-22T05:54:00;100780;;;13.2;100.0